createdAt,value
2023-02-01T00:00:17.428Z,97.2
2023-02-01T00:01:16.956Z,97.2
2023-02-01T00:02:17.201Z,97.2
2023-02-01T00:03:16.860Z,97.3
2023-02-01T00:04:17.359Z,97.4
2023-02-01T00:05:16.877Z,97.4
2023-02-01T00:06:17.384Z,97.3
2023-02-01T00:07:16.877Z,97.4
2023-02-01T00:08:17.340Z,97.7
2023-02-01T00:09:16.841Z,97.7
2023-02-01T00:10:17.471Z,97.7
2023-02-01T00:11:17.008Z,97.7
2023-02-01T00:12:17.235Z,97.8
2023-02-01T00:13:16.745Z,97.8
2023-02-01T00:14:17.234Z,97.8
2023-02-01T00:15:16.755Z,97.7
2023-02-01T00:16:17.499Z,97.7
2023-02-01T00:17:17.107Z,97.9
2023-02-01T00:18:16.649Z,98.1
2023-02-01T00:19:17.157Z,98.1
2023-02-01T00:20:16.684Z,98.1
2023-02-01T00:21:17.211Z,98.1
2023-02-01T00:22:16.858Z,98.0
2023-02-01T00:23:17.396Z,98.0
2023-02-01T00:24:17.014Z,97.9
2023-02-01T00:25:16.561Z,97.9
2023-02-01T00:26:17.216Z,97.9
2023-02-01T00:27:16.732Z,97.9
2023-02-01T00:28:17.263Z,98.0
2023-02-01T00:29:16.785Z,98.0
2023-02-01T00:30:17.360Z,97.9
2023-02-01T00:31:17.102Z,97.8
2023-02-01T00:32:16.650Z,97.7
2023-02-01T00:33:17.157Z,97.7
2023-02-01T00:34:16.660Z,97.6
2023-02-01T00:35:17.161Z,97.7
2023-02-01T00:36:16.650Z,97.7
2023-02-01T00:37:17.160Z,97.6
2023-02-01T00:38:16.656Z,97.6
2023-02-01T00:39:17.128Z,97.6
2023-02-01T00:40:16.679Z,97.6
2023-02-01T00:41:17.160Z,97.4
2023-02-01T00:42:16.661Z,97.3
2023-02-01T00:43:17.127Z,97.3
2023-02-01T00:44:16.659Z,97.3
2023-02-01T00:45:17.174Z,97.3
2023-02-01T00:46:16.871Z,97.3
2023-02-01T00:47:17.425Z,97.2
2023-02-01T00:48:16.925Z,97.2
2023-02-01T00:49:17.418Z,97.2
2023-02-01T00:50:16.918Z,97.1
2023-02-01T00:51:17.432Z,97.0
2023-02-01T00:52:17.148Z,96.9
2023-02-01T00:53:16.670Z,96.9
2023-02-01T00:54:17.180Z,96.7
2023-02-01T00:55:16.676Z,96.7
2023-02-01T00:56:17.173Z,96.7
2023-02-01T00:57:16.662Z,96.7
2023-02-01T00:58:17.231Z,96.6
2023-02-01T00:59:16.778Z,96.7
2023-02-01T01:00:17.297Z,96.6
2023-02-01T01:01:16.792Z,96.6
2023-02-01T01:02:16.820Z,96.6
2023-02-01T01:03:17.364Z,96.4
2023-02-01T01:04:16.867Z,96.4
2023-02-01T01:05:17.390Z,96.2
2023-02-01T01:06:16.930Z,96.1
2023-02-01T01:07:17.424Z,96.1
2023-02-01T01:08:16.917Z,96.1
2023-02-01T01:09:17.410Z,96.1
2023-02-01T01:10:16.917Z,96.2
2023-02-01T01:11:17.453Z,96.2
2023-02-01T01:12:16.719Z,96.2
2023-02-01T01:13:17.253Z,96.3
2023-02-01T01:14:16.763Z,96.3
2023-02-01T01:15:17.268Z,96.4
2023-02-01T01:16:16.930Z,96.5
2023-02-01T01:17:16.499Z,96.6
2023-02-01T01:18:16.978Z,96.6
2023-02-01T01:19:16.488Z,96.5
2023-02-01T01:20:16.986Z,96.6
2023-02-01T01:21:16.507Z,96.7
2023-02-01T01:22:16.965Z,96.7
2023-02-01T01:23:16.459Z,96.9
2023-02-01T01:24:16.932Z,97.0
2023-02-01T01:25:17.479Z,97.0
2023-02-01T01:26:17.115Z,97.0
2023-02-01T01:27:16.637Z,97.1
2023-02-01T01:28:17.120Z,97.2
2023-02-01T01:29:16.638Z,97.2
2023-02-01T01:30:17.223Z,97.3
2023-02-01T01:31:16.851Z,97.3
2023-02-01T01:32:17.192Z,97.3
2023-02-01T01:33:16.707Z,97.3
2023-02-01T01:34:17.195Z,97.4
2023-02-01T01:35:16.671Z,97.5
2023-02-01T01:36:17.163Z,97.4
2023-02-01T01:37:16.630Z,97.5
2023-02-01T01:38:17.114Z,97.5
2023-02-01T01:39:16.622Z,97.5
2023-02-01T01:40:17.120Z,97.5
2023-02-01T01:41:16.674Z,97.5
2023-02-01T01:42:17.167Z,97.5
2023-02-01T01:43:16.699Z,97.5
2023-02-01T01:44:17.221Z,97.4
2023-02-01T01:45:16.744Z,97.4
2023-02-01T01:46:17.285Z,97.5
2023-02-01T01:47:16.734Z,97.5
2023-02-01T01:48:17.237Z,97.5
2023-02-01T01:49:16.709Z,97.5
2023-02-01T01:50:17.191Z,97.5
2023-02-01T01:51:16.681Z,97.5
2023-02-01T01:52:17.230Z,97.4
2023-02-01T01:53:16.727Z,97.3
2023-02-01T01:54:17.231Z,97.2
2023-02-01T01:55:16.741Z,97.1
2023-02-01T01:56:17.246Z,97.1
2023-02-01T01:57:16.741Z,97.2
2023-02-01T01:58:17.478Z,97.2
2023-02-01T01:59:17.208Z,97.2
2023-02-01T02:00:16.728Z,97.1
2023-02-01T02:01:17.207Z,97.0
2023-02-01T02:02:16.654Z,97.1
2023-02-01T02:03:17.173Z,97.0
2023-02-01T02:04:16.639Z,96.9
2023-02-01T02:05:17.139Z,96.9
2023-02-01T02:06:16.635Z,96.9
2023-02-01T02:07:17.126Z,96.9
2023-02-01T02:08:16.623Z,96.8
2023-02-01T02:09:17.106Z,96.8
2023-02-01T02:10:16.654Z,96.7
2023-02-01T02:11:17.183Z,96.7
2023-02-01T02:12:16.671Z,96.7
2023-02-01T02:13:17.189Z,96.7
2023-02-01T02:14:16.694Z,96.6
2023-02-01T02:15:17.325Z,96.5
2023-02-01T02:16:16.917Z,96.5
2023-02-01T02:17:17.434Z,96.4
2023-02-01T02:18:16.904Z,96.5
2023-02-01T02:19:17.399Z,96.4
2023-02-01T02:20:16.892Z,96.3
2023-02-01T02:21:17.394Z,96.2
2023-02-01T02:22:16.662Z,96.2
2023-02-01T02:23:17.172Z,96.3
2023-02-01T02:24:16.739Z,96.3
2023-02-01T02:25:17.263Z,96.1
2023-02-01T02:26:16.846Z,96.1
2023-02-01T02:27:17.355Z,95.9
2023-02-01T02:28:16.854Z,95.8
2023-02-01T02:29:17.343Z,95.9
2023-02-01T02:30:16.833Z,95.9
2023-02-01T02:31:17.479Z,96.0
2023-02-01T02:32:16.731Z,96.0
2023-02-01T02:33:17.239Z,96.0
2023-02-01T02:34:16.764Z,96.0
2023-02-01T02:35:17.296Z,95.9
2023-02-01T02:36:16.803Z,95.9
2023-02-01T02:37:17.305Z,95.8
2023-02-01T02:38:16.839Z,95.8
2023-02-01T02:39:17.332Z,95.8
2023-02-01T02:40:16.799Z,95.7
2023-02-01T02:41:17.279Z,95.6
2023-02-01T02:42:16.603Z,95.7
2023-02-01T02:43:17.091Z,95.7
2023-02-01T02:44:16.564Z,95.7
2023-02-01T02:45:17.064Z,95.7
2023-02-01T02:46:16.559Z,95.8
2023-02-01T02:47:17.089Z,95.8
2023-02-01T02:48:16.582Z,95.8
2023-02-01T02:49:17.099Z,95.8
2023-02-01T02:50:16.611Z,95.8
2023-02-01T02:51:17.102Z,95.6
2023-02-01T02:52:17.396Z,95.5
2023-02-01T02:53:16.941Z,95.5
2023-02-01T02:54:17.425Z,95.5
2023-02-01T02:55:16.902Z,95.5
2023-02-01T02:56:17.433Z,95.5
2023-02-01T02:57:16.922Z,95.6
2023-02-01T02:58:17.388Z,95.5
2023-02-01T02:59:16.869Z,95.5
2023-02-01T03:00:17.408Z,95.6
2023-02-01T03:01:17.070Z,95.7
2023-02-01T03:02:16.912Z,95.6
2023-02-01T03:03:17.424Z,95.6
2023-02-01T03:04:16.903Z,95.5
2023-02-01T03:05:17.407Z,95.4
2023-02-01T03:06:16.950Z,95.3
2023-02-01T03:07:17.442Z,95.4
2023-02-01T03:08:16.920Z,95.5
2023-02-01T03:09:17.389Z,95.5
2023-02-01T03:10:16.868Z,95.4
2023-02-01T03:11:17.393Z,95.4
2023-02-01T03:12:17.251Z,95.5
2023-02-01T03:13:16.741Z,95.5
2023-02-01T03:14:17.220Z,95.5
2023-02-01T03:15:16.729Z,95.4
2023-02-01T03:16:17.285Z,95.5
2023-02-01T03:17:16.812Z,95.5
2023-02-01T03:18:17.331Z,95.6
2023-02-01T03:19:16.852Z,95.6
2023-02-01T03:20:17.377Z,95.5
2023-02-01T03:21:16.873Z,95.5
2023-02-01T03:22:17.235Z,95.5
2023-02-01T03:23:16.728Z,95.5
2023-02-01T03:24:17.241Z,95.6
2023-02-01T03:25:16.798Z,95.5
2023-02-01T03:26:17.416Z,95.5
2023-02-01T03:27:16.954Z,95.4
2023-02-01T03:28:17.439Z,95.3
2023-02-01T03:29:16.963Z,95.3
2023-02-01T03:30:17.464Z,95.4
2023-02-01T03:31:17.009Z,95.4
2023-02-01T03:32:16.835Z,95.4
2023-02-01T03:33:17.326Z,95.5
2023-02-01T03:34:16.862Z,95.5
2023-02-01T03:35:17.358Z,95.5
2023-02-01T03:36:16.842Z,95.5
2023-02-01T03:37:17.321Z,95.6
2023-02-01T03:38:16.853Z,95.5
2023-02-01T03:39:17.352Z,95.5
2023-02-01T03:40:16.819Z,95.5
2023-02-01T03:41:16.741Z,95.4
2023-02-01T03:42:17.079Z,95.3
2023-02-01T03:43:16.605Z,95.3
2023-02-01T03:44:17.101Z,95.4
2023-02-01T03:45:16.638Z,95.4
2023-02-01T03:46:17.262Z,95.5
2023-02-01T03:47:16.766Z,95.5
2023-02-01T03:48:17.264Z,95.5
2023-02-01T03:49:16.805Z,95.5
2023-02-01T03:50:17.340Z,95.6
2023-02-01T03:51:16.857Z,95.6
2023-02-01T03:52:16.706Z,95.6
2023-02-01T03:53:17.200Z,95.5
2023-02-01T03:54:16.706Z,95.5
2023-02-01T03:55:17.227Z,95.4
2023-02-01T03:56:16.741Z,95.4
2023-02-01T03:57:17.232Z,95.4
2023-02-01T03:58:16.749Z,95.4
2023-02-01T03:59:17.264Z,95.4
2023-02-01T04:00:16.793Z,95.5
2023-02-01T04:01:17.371Z,95.5
2023-02-01T04:02:16.878Z,95.5
2023-02-01T04:03:17.359Z,95.5
2023-02-01T04:04:16.897Z,95.6
2023-02-01T04:05:17.435Z,95.6
2023-02-01T04:06:16.921Z,95.6
2023-02-01T04:07:17.439Z,95.7
2023-02-01T04:08:16.944Z,95.8
2023-02-01T04:09:17.437Z,95.8
2023-02-01T04:10:20.071Z,95.8
2023-02-01T04:11:16.653Z,95.8
2023-02-01T04:12:17.308Z,95.8
2023-02-01T04:13:16.833Z,95.8
2023-02-01T04:14:17.304Z,95.7
2023-02-01T04:15:16.794Z,95.6
2023-02-01T04:16:17.373Z,95.7
2023-02-01T04:17:16.871Z,95.6
2023-02-01T04:18:17.394Z,95.6
2023-02-01T04:19:16.920Z,95.7
2023-02-01T04:20:17.461Z,95.8
2023-02-01T04:21:16.931Z,95.9
2023-02-01T04:22:16.546Z,96.1
2023-02-01T04:23:17.038Z,96.1
2023-02-01T04:24:16.516Z,96.4
2023-02-01T04:25:17.002Z,96.5
2023-02-01T04:26:16.554Z,96.5
2023-02-01T04:27:17.118Z,96.7
2023-02-01T04:28:16.643Z,96.9
2023-02-01T04:29:17.152Z,97.0
2023-02-01T04:30:16.667Z,97.1
2023-02-01T04:31:17.340Z,97.1
2023-02-01T04:32:16.736Z,97.1
2023-02-01T04:33:17.224Z,97.1
2023-02-01T04:34:16.722Z,97.1
2023-02-01T04:35:17.190Z,97.0
2023-02-01T04:36:16.683Z,97.0
2023-02-01T04:37:17.184Z,97.0
2023-02-01T04:38:16.677Z,97.1
2023-02-01T04:39:17.217Z,97.2
2023-02-01T04:40:16.731Z,97.2
2023-02-01T04:41:17.235Z,97.3
2023-02-01T04:42:16.801Z,97.4
2023-02-01T04:43:17.287Z,97.4
2023-02-01T04:44:16.786Z,97.4
2023-02-01T04:45:17.275Z,97.3
2023-02-01T04:46:16.920Z,97.3
2023-02-01T04:47:17.469Z,97.3
2023-02-01T04:48:16.987Z,97.2
2023-02-01T04:49:16.488Z,97.2
2023-02-01T04:50:16.986Z,97.2
2023-02-01T04:51:16.471Z,97.2
2023-02-01T04:52:16.954Z,97.4
2023-02-01T04:53:17.462Z,97.4
2023-02-01T04:54:16.943Z,97.6
2023-02-01T04:55:17.501Z,97.6
2023-02-01T04:56:17.027Z,97.6
2023-02-01T04:57:16.541Z,97.6
2023-02-01T04:58:17.046Z,97.6
2023-02-01T04:59:16.590Z,97.4
2023-02-01T05:00:17.180Z,97.4
2023-02-01T05:01:16.796Z,97.6
2023-02-01T05:02:17.045Z,97.7
2023-02-01T05:03:16.552Z,97.6
2023-02-01T05:04:17.196Z,97.7
2023-02-01T05:05:16.707Z,97.8
2023-02-01T05:06:17.203Z,97.7
2023-02-01T05:07:16.679Z,97.7
2023-02-01T05:08:17.209Z,97.7
2023-02-01T05:09:16.777Z,97.6
2023-02-01T05:10:17.276Z,97.7
2023-02-01T05:11:16.776Z,97.8
2023-02-01T05:12:17.237Z,97.7
2023-02-01T05:13:16.753Z,97.7
2023-02-01T05:14:17.236Z,97.7
2023-02-01T05:15:16.762Z,97.5
2023-02-01T05:16:17.228Z,97.4
2023-02-01T05:17:16.748Z,97.2
2023-02-01T05:18:17.234Z,97.3
2023-02-01T05:19:16.745Z,97.3
2023-02-01T05:20:17.248Z,97.4
2023-02-01T05:21:16.771Z,97.4
2023-02-01T05:22:17.432Z,97.3
2023-02-01T05:23:16.934Z,97.2
2023-02-01T05:24:17.515Z,97.1
2023-02-01T05:25:17.041Z,97.1
2023-02-01T05:26:16.608Z,97.1
2023-02-01T05:27:17.105Z,97.0
2023-02-01T05:28:16.594Z,96.9
2023-02-01T05:29:17.084Z,96.9
2023-02-01T05:30:16.607Z,96.8
2023-02-01T05:31:17.341Z,96.8
2023-02-01T05:32:23.182Z,96.8
2023-02-01T05:33:16.861Z,96.8
2023-02-01T05:34:17.342Z,96.4
2023-02-01T05:35:16.849Z,96.4
2023-02-01T05:36:17.347Z,96.4
2023-02-01T05:37:16.890Z,96.2
2023-02-01T05:38:17.399Z,96.2
2023-02-01T05:39:16.906Z,96.2
2023-02-01T05:40:17.421Z,96.1
2023-02-01T05:41:16.907Z,95.9
2023-02-01T05:42:17.044Z,96.1
2023-02-01T05:43:16.543Z,96.0
2023-02-01T05:44:17.053Z,96.0
2023-02-01T05:45:16.566Z,96.0
2023-02-01T05:46:17.220Z,95.9
2023-02-01T05:47:16.726Z,96.1
2023-02-01T05:48:17.267Z,96.0
2023-02-01T05:49:16.773Z,96.1
2023-02-01T05:50:17.316Z,96.2
2023-02-01T05:51:16.820Z,96.3
2023-02-01T05:52:17.334Z,96.3
2023-02-01T05:53:16.850Z,96.2
2023-02-01T05:54:17.352Z,96.2
2023-02-01T05:55:16.870Z,96.1
2023-02-01T05:56:17.344Z,96.1
2023-02-01T05:57:16.864Z,96.2
2023-02-01T05:58:17.385Z,96.0
2023-02-01T05:59:16.867Z,96.1
2023-02-01T06:00:17.396Z,96.1
2023-02-01T06:01:16.891Z,96.2
2023-02-01T06:02:16.508Z,96.3
2023-02-01T06:03:17.017Z,96.4
2023-02-01T06:04:16.532Z,96.4
2023-02-01T06:05:17.047Z,96.5
2023-02-01T06:06:16.571Z,96.5
2023-02-01T06:07:17.069Z,96.5
2023-02-01T06:08:16.551Z,96.5
2023-02-01T06:09:17.062Z,96.5
2023-02-01T06:10:16.554Z,96.5
2023-02-01T06:11:32.884Z,96.4
2023-02-01T06:12:16.559Z,96.4
2023-02-01T06:13:17.088Z,96.3
2023-02-01T06:14:16.585Z,96.4
2023-02-01T06:15:17.133Z,96.5
2023-02-01T06:16:16.835Z,96.5
2023-02-01T06:17:17.359Z,96.5
2023-02-01T06:18:16.856Z,96.5
2023-02-01T06:19:17.345Z,96.6
2023-02-01T06:20:16.876Z,96.6
2023-02-01T06:21:17.414Z,96.5
2023-02-01T06:22:17.079Z,96.5
2023-02-01T06:23:16.566Z,96.6
2023-02-01T06:24:17.067Z,96.6
2023-02-01T06:25:16.596Z,96.5
2023-02-01T06:26:17.181Z,96.5
2023-02-01T06:27:16.692Z,96.5
2023-02-01T06:28:17.222Z,96.4
2023-02-01T06:29:16.719Z,96.4
2023-02-01T06:30:17.236Z,96.4
2023-02-01T06:31:17.063Z,96.4
2023-02-01T06:32:16.471Z,96.5
2023-02-01T06:33:17.008Z,96.5
2023-02-01T06:34:16.530Z,96.5
2023-02-01T06:35:17.200Z,96.5
2023-02-01T06:36:16.723Z,96.5
2023-02-01T06:37:17.222Z,96.6
2023-02-01T06:38:16.703Z,96.6
2023-02-01T06:39:17.315Z,96.6
2023-02-01T06:40:16.868Z,96.6
2023-02-01T06:41:17.391Z,96.4
2023-02-01T06:42:16.965Z,96.4
2023-02-01T06:43:16.487Z,96.4
2023-02-01T06:44:16.992Z,96.3
2023-02-01T06:45:16.506Z,96.3
2023-02-01T06:46:17.142Z,96.3
2023-02-01T06:47:16.666Z,96.3
2023-02-01T06:48:17.170Z,96.1
2023-02-01T06:49:16.673Z,95.9
2023-02-01T06:50:17.165Z,96.0
2023-02-01T06:51:16.703Z,96.0
2023-02-01T06:52:17.291Z,95.9
2023-02-01T06:53:16.826Z,95.9
2023-02-01T06:54:17.335Z,95.8
2023-02-01T06:55:16.852Z,95.8
2023-02-01T06:56:17.361Z,95.9
2023-02-01T06:57:16.844Z,96.0
2023-02-01T06:58:17.327Z,95.9
2023-02-01T06:59:17.625Z,95.7
2023-02-01T07:00:17.122Z,95.6
2023-02-01T07:01:16.644Z,95.6
2023-02-01T07:02:17.452Z,95.6
2023-02-01T07:03:16.991Z,95.6
2023-02-01T07:04:16.510Z,95.7
2023-02-01T07:05:17.020Z,95.7
2023-02-01T07:06:16.510Z,95.7
2023-02-01T07:07:17.027Z,95.6
2023-02-01T07:08:16.537Z,95.7
2023-02-01T07:09:17.031Z,95.6
2023-02-01T07:10:16.527Z,95.6
2023-02-01T07:11:17.010Z,95.6
2023-02-01T07:12:16.572Z,95.6
2023-02-01T07:13:17.065Z,95.5
2023-02-01T07:14:16.578Z,95.5
2023-02-01T07:15:17.057Z,95.5
2023-02-01T07:16:16.700Z,95.5
2023-02-01T07:17:17.202Z,95.5
2023-02-01T07:18:16.696Z,95.4
2023-02-01T07:19:17.203Z,95.5
2023-02-01T07:20:16.689Z,95.5
2023-02-01T07:21:17.196Z,95.4
2023-02-01T07:22:17.119Z,95.3
2023-02-01T07:23:16.616Z,95.3
2023-02-01T07:24:17.158Z,95.3
2023-02-01T07:25:16.639Z,95.4
2023-02-01T07:26:17.233Z,95.4
2023-02-01T07:27:16.751Z,95.5
2023-02-01T07:28:17.285Z,95.4
2023-02-01T07:29:16.783Z,95.4
2023-02-01T07:30:17.295Z,95.4
2023-02-01T07:31:16.843Z,95.3
2023-02-01T07:32:17.457Z,95.3
2023-02-01T07:33:16.971Z,95.3
2023-02-01T07:34:16.474Z,95.3
2023-02-01T07:35:16.951Z,95.3
2023-02-01T07:36:17.539Z,95.3
2023-02-01T07:37:17.071Z,95.3
2023-02-01T07:38:16.556Z,95.2
2023-02-01T07:39:17.058Z,95.2
2023-02-01T07:40:16.569Z,95.2
2023-02-01T07:41:17.232Z,95.3
2023-02-01T07:42:17.445Z,95.3
2023-02-01T07:43:16.940Z,95.2
2023-02-01T07:44:17.437Z,95.2
2023-02-01T07:45:21.988Z,95.2
2023-02-01T07:46:16.890Z,95.2
2023-02-01T07:47:16.515Z,95.2
2023-02-01T07:48:17.033Z,95.2
2023-02-01T07:49:16.547Z,95.1
2023-02-01T07:50:17.046Z,95.2
2023-02-01T07:51:16.560Z,95.1
2023-02-01T07:52:17.300Z,95.0
2023-02-01T07:53:16.803Z,95.0
2023-02-01T07:54:17.293Z,95.0
2023-02-01T07:55:16.795Z,94.9
2023-02-01T07:56:17.353Z,94.8
2023-02-01T07:57:16.865Z,94.7
2023-02-01T07:58:17.419Z,94.5
2023-02-01T07:59:16.945Z,94.7
2023-02-01T08:00:17.457Z,94.7
2023-02-01T08:01:17.205Z,94.5
2023-02-01T08:02:17.262Z,94.4
2023-02-01T08:03:17.655Z,94.3
2023-02-01T08:04:17.161Z,94.3
2023-02-01T08:05:16.708Z,94.1
2023-02-01T08:06:17.203Z,94.2
2023-02-01T08:07:16.685Z,94.2
2023-02-01T08:08:17.221Z,94.2
2023-02-01T08:09:16.703Z,94.0
2023-02-01T08:10:17.204Z,94.0
2023-02-01T08:11:16.706Z,94.0
2023-02-01T08:12:17.157Z,93.8
2023-02-01T08:13:16.667Z,93.9
2023-02-01T08:14:17.179Z,93.8
2023-02-01T08:15:16.704Z,93.7
2023-02-01T08:16:17.464Z,93.6
2023-02-01T08:17:16.974Z,93.6
2023-02-01T08:18:16.471Z,93.4
2023-02-01T08:19:16.970Z,93.4
2023-02-01T08:20:17.470Z,93.2
2023-02-01T08:21:16.962Z,93.2
2023-02-01T08:22:16.974Z,93.1
2023-02-01T08:23:16.493Z,92.9
2023-02-01T08:24:17.002Z,92.7
2023-02-01T08:25:16.517Z,92.9
2023-02-01T08:26:17.238Z,92.9
2023-02-01T08:27:16.807Z,92.7
2023-02-01T08:28:17.334Z,92.4
2023-02-01T08:29:16.869Z,92.2
2023-02-01T08:30:17.393Z,91.8
2023-02-01T08:31:16.876Z,91.7
2023-02-01T08:32:16.532Z,91.7
2023-02-01T08:33:17.097Z,91.6
2023-02-01T08:34:16.587Z,91.4
2023-02-01T08:35:17.118Z,91.6
2023-02-01T08:36:16.611Z,91.5
2023-02-01T08:37:17.133Z,91.2
2023-02-01T08:38:16.635Z,91.1
2023-02-01T08:39:17.126Z,91.0
2023-02-01T08:40:16.628Z,91.0
2023-02-01T08:41:17.145Z,90.6
2023-02-01T08:42:16.831Z,90.4
2023-02-01T08:43:17.323Z,90.9
2023-02-01T08:44:16.801Z,90.8
2023-02-01T08:45:17.339Z,90.8
2023-02-01T08:46:17.059Z,90.7
2023-02-01T08:47:16.618Z,90.7
2023-02-01T08:48:17.130Z,90.9
2023-02-01T08:49:16.642Z,90.8
2023-02-01T08:50:17.165Z,90.6
2023-02-01T08:51:16.705Z,90.5
2023-02-01T08:52:16.709Z,90.6
2023-02-01T08:53:17.332Z,90.0
2023-02-01T08:54:16.865Z,89.3
2023-02-01T08:55:17.397Z,89.5
2023-02-01T08:56:16.893Z,89.8
2023-02-01T08:57:17.410Z,89.5
2023-02-01T08:58:16.921Z,89.5
2023-02-01T08:59:17.445Z,89.8
2023-02-01T09:00:16.987Z,89.5
2023-02-01T09:01:16.751Z,88.7
2023-02-01T09:02:16.852Z,88.7
2023-02-01T09:03:17.340Z,88.6
2023-02-01T09:04:16.937Z,88.9
2023-02-01T09:05:16.493Z,87.6
2023-02-01T09:06:17.031Z,87.7
2023-02-01T09:07:16.515Z,88.1
2023-02-01T09:08:17.041Z,88.5
2023-02-01T09:09:16.523Z,88.8
2023-02-01T09:10:26.556Z,88.7
2023-02-01T09:11:16.652Z,88.8
2023-02-01T09:12:17.056Z,89.1
2023-02-01T09:13:16.566Z,89.0
2023-02-01T09:14:17.056Z,89.2
2023-02-01T09:15:16.570Z,89.2
2023-02-01T09:16:17.407Z,89.4
2023-02-01T09:17:16.972Z,89.2
2023-02-01T09:18:17.460Z,89.4
2023-02-01T09:19:27.161Z,89.4
2023-02-01T09:20:16.853Z,89.4
2023-02-01T09:21:17.327Z,89.3
2023-02-01T09:22:16.878Z,89.0
2023-02-01T09:23:17.385Z,89.3
2023-02-01T09:24:16.899Z,89.4
2023-02-01T09:25:17.588Z,89.6
2023-02-01T09:26:26.400Z,89.8
2023-02-01T09:27:16.826Z,89.9
2023-02-01T09:28:17.326Z,89.8
2023-02-01T09:29:16.852Z,89.8
2023-02-01T09:30:17.359Z,89.7
2023-02-01T09:31:17.031Z,89.5
2023-02-01T09:32:17.397Z,89.1
2023-02-01T09:33:16.922Z,89.3
2023-02-01T09:34:17.396Z,89.2
2023-02-01T09:35:16.910Z,89.5
2023-02-01T09:36:17.422Z,89.4
2023-02-01T09:37:16.901Z,89.2
2023-02-01T09:38:17.384Z,89.0
2023-02-01T09:39:16.886Z,88.7
2023-02-01T09:40:17.427Z,88.9
2023-02-01T09:41:16.905Z,88.8
2023-02-01T09:42:17.251Z,88.7
2023-02-01T09:43:16.748Z,88.6
2023-02-01T09:44:17.264Z,88.0
2023-02-01T09:45:16.771Z,87.6
2023-02-01T09:46:17.361Z,87.6
2023-02-01T09:47:16.897Z,87.4
2023-02-01T09:48:17.410Z,87.3
2023-02-01T09:49:16.951Z,87.0
2023-02-01T09:50:17.487Z,86.6
2023-02-01T09:51:16.997Z,86.6
2023-02-01T09:52:16.747Z,86.8
2023-02-01T09:53:17.282Z,86.6
2023-02-01T09:54:16.807Z,86.2
2023-02-01T09:55:17.320Z,86.0
2023-02-01T09:56:16.821Z,85.8
2023-02-01T09:57:17.337Z,85.6
2023-02-01T09:58:16.862Z,85.7
2023-02-01T09:59:17.376Z,85.8
2023-02-01T10:00:16.873Z,85.8
2023-02-01T10:01:17.456Z,85.8
2023-02-01T10:02:16.747Z,85.6
2023-02-01T10:03:17.369Z,85.6
2023-02-01T10:04:16.911Z,85.6
2023-02-01T10:05:17.465Z,85.5
2023-02-01T10:06:16.925Z,85.7
2023-02-01T10:07:17.420Z,85.9
2023-02-01T10:08:16.892Z,85.5
2023-02-01T10:09:17.409Z,85.8
2023-02-01T10:10:16.887Z,85.7
2023-02-01T10:11:17.405Z,85.5
2023-02-01T10:12:16.776Z,85.7
2023-02-01T10:13:17.279Z,85.7
2023-02-01T10:14:16.920Z,85.8
2023-02-01T10:15:17.486Z,85.7
2023-02-01T10:16:17.256Z,85.8
2023-02-01T10:17:16.829Z,85.7
2023-02-01T10:18:17.441Z,85.5
2023-02-01T10:19:16.938Z,85.5
2023-02-01T10:20:17.443Z,85.8
2023-02-01T10:21:16.916Z,85.8
2023-02-01T10:22:17.038Z,86.1
2023-02-01T10:23:34.197Z,86.1
2023-02-01T10:24:18.617Z,86.1
2023-02-01T10:25:17.390Z,86.1
2023-02-01T10:26:17.243Z,86.0
2023-02-01T10:27:16.788Z,86.5
2023-02-01T10:28:17.328Z,86.7
2023-02-01T10:29:16.887Z,86.6
2023-02-01T10:30:17.415Z,86.8
2023-02-01T10:31:17.231Z,87.7
2023-02-01T10:32:16.460Z,87.9
2023-02-01T10:33:16.978Z,88.3
2023-02-01T10:34:16.490Z,89.1
2023-02-01T10:35:16.997Z,89.6
2023-02-01T10:36:16.507Z,89.9
2023-02-01T10:37:17.003Z,90.5
2023-02-01T10:38:16.514Z,90.4
2023-02-01T10:39:17.032Z,90.8
2023-02-01T10:40:16.540Z,90.9
2023-02-01T10:41:17.051Z,91.4
2023-02-01T10:42:16.671Z,91.8
2023-02-01T10:43:17.193Z,92.1
2023-02-01T10:44:16.745Z,93.0
2023-02-01T10:45:17.217Z,93.3
2023-02-01T10:46:16.777Z,93.4
2023-02-01T10:47:17.305Z,93.5
2023-02-01T10:48:16.843Z,93.2
2023-02-01T10:49:17.366Z,93.1
2023-02-01T10:50:17.085Z,93.0
2023-02-01T10:51:16.569Z,93.4
2023-02-01T10:52:17.246Z,93.3
2023-02-01T10:53:16.814Z,92.9
2023-02-01T10:54:17.324Z,92.8
2023-02-01T10:55:16.833Z,92.7
2023-02-01T10:56:17.355Z,92.6
2023-02-01T10:57:16.853Z,92.8
2023-02-01T10:58:17.351Z,92.4
2023-02-01T10:59:16.852Z,92.2
2023-02-01T11:00:17.354Z,92.1
2023-02-01T11:01:16.968Z,92.2
2023-02-01T11:02:16.940Z,92.0
2023-02-01T11:03:17.510Z,91.8
2023-02-01T11:04:17.019Z,91.7
2023-02-01T11:05:16.518Z,91.5
2023-02-01T11:06:17.017Z,91.4
2023-02-01T11:07:16.551Z,91.3
2023-02-01T11:08:17.080Z,91.3
2023-02-01T11:09:16.589Z,91.2
2023-02-01T11:10:17.083Z,90.8
2023-02-01T11:11:19.460Z,90.5
2023-02-01T11:12:17.118Z,90.3
2023-02-01T11:13:16.587Z,90.5
2023-02-01T11:14:17.116Z,90.2
2023-02-01T11:15:16.637Z,90.4
2023-02-01T11:16:17.255Z,90.3
2023-02-01T11:17:16.778Z,90.4
2023-02-01T11:18:17.284Z,90.3
2023-02-01T11:19:16.772Z,90.5
2023-02-01T11:20:17.419Z,90.7
2023-02-01T11:21:16.955Z,90.9
2023-02-01T11:22:17.426Z,91.1
2023-02-01T11:23:16.936Z,91.3
2023-02-01T11:24:17.438Z,91.5
2023-02-01T11:25:16.934Z,91.5
2023-02-01T11:26:17.595Z,91.5
2023-02-01T11:27:27.931Z,91.3
2023-02-01T11:28:16.541Z,91.2
2023-02-01T11:29:17.031Z,91.1
2023-02-01T11:30:16.574Z,91.4
2023-02-01T11:31:17.188Z,91.4
2023-02-01T11:32:16.907Z,91.4
2023-02-01T11:33:17.405Z,91.4
2023-02-01T11:34:16.960Z,91.5
2023-02-01T11:35:17.523Z,91.1
2023-02-01T11:36:17.062Z,90.8
2023-02-01T11:37:16.561Z,90.8
2023-02-01T11:38:17.068Z,90.9
2023-02-01T11:39:16.572Z,90.7
2023-02-01T11:40:17.166Z,90.6
2023-02-01T11:41:16.720Z,90.5
2023-02-01T11:42:17.378Z,90.6
2023-02-01T11:43:16.894Z,90.4
2023-02-01T11:44:17.410Z,90.0
2023-02-01T11:45:16.912Z,90.0
2023-02-01T11:46:17.455Z,89.8
2023-02-01T11:47:17.033Z,89.4
2023-02-01T11:48:27.369Z,89.2
2023-02-01T11:49:16.993Z,89.2
2023-02-01T11:50:16.502Z,89.4
2023-02-01T11:51:17.021Z,88.8
2023-02-01T11:52:17.341Z,89.0
2023-02-01T11:53:16.821Z,88.7
2023-02-01T11:54:17.296Z,88.6
2023-02-01T11:55:16.782Z,87.6
2023-02-01T11:56:17.260Z,87.9
2023-02-01T11:57:16.761Z,87.9
2023-02-01T11:58:17.269Z,87.1
2023-02-01T11:59:16.761Z,87.0
2023-02-01T12:00:17.461Z,87.2
2023-02-01T12:01:17.000Z,87.3
2023-02-01T12:02:17.579Z,87.0
2023-02-01T12:03:17.172Z,86.9
2023-02-01T12:04:16.727Z,87.2
2023-02-01T12:05:17.214Z,87.1
2023-02-01T12:06:16.711Z,87.1
2023-02-01T12:07:17.194Z,87.5
2023-02-01T12:08:16.692Z,87.3
2023-02-01T12:09:17.173Z,87.4
2023-02-01T12:10:16.761Z,87.4
2023-02-01T12:11:17.347Z,87.4
2023-02-01T12:12:16.669Z,87.1
2023-02-01T12:13:17.174Z,87.2
2023-02-01T12:14:19.549Z,87.6
2023-02-01T12:15:17.103Z,87.3
2023-02-01T12:16:16.647Z,87.4
2023-02-01T12:17:17.187Z,87.2
2023-02-01T12:18:16.699Z,87.1
2023-02-01T12:19:17.216Z,87.1
2023-02-01T12:20:16.879Z,87.6
2023-02-01T12:21:17.387Z,87.6
2023-02-01T12:22:16.796Z,87.6
2023-02-01T12:23:17.294Z,87.7
2023-02-01T12:24:16.802Z,87.3
2023-02-01T12:25:17.324Z,87.4
2023-02-01T12:26:19.588Z,87.5
2023-02-01T12:27:17.229Z,87.6
2023-02-01T12:28:16.745Z,87.6
2023-02-01T12:29:17.260Z,87.7
2023-02-01T12:30:16.757Z,87.7
2023-02-01T12:31:17.408Z,87.7
2023-02-01T12:32:16.866Z,87.9
2023-02-01T12:33:17.349Z,87.9
2023-02-01T12:34:16.930Z,87.8
2023-02-01T12:35:17.427Z,87.8
2023-02-01T12:36:16.948Z,87.5
2023-02-01T12:37:17.427Z,87.7
2023-02-01T12:38:17.096Z,87.6
2023-02-01T12:39:16.620Z,87.6
2023-02-01T12:40:17.107Z,87.5
2023-02-01T12:41:16.599Z,87.6
2023-02-01T12:42:16.494Z,87.8
2023-02-01T12:43:16.997Z,88.0
2023-02-01T12:44:16.531Z,88.2
2023-02-01T12:45:17.050Z,88.6
2023-02-01T12:46:16.661Z,88.7
2023-02-01T12:47:17.160Z,89.3
2023-02-01T12:48:16.657Z,89.5
2023-02-01T12:49:17.151Z,89.5
2023-02-01T12:50:16.633Z,90.8
2023-02-01T12:51:17.141Z,91.6
2023-02-01T12:52:16.632Z,91.7
2023-02-01T12:53:17.122Z,92.3
2023-02-01T12:54:16.648Z,92.6
2023-02-01T12:55:17.146Z,93.5
2023-02-01T12:56:16.648Z,93.7
2023-02-01T12:57:17.162Z,93.7
2023-02-01T12:58:16.661Z,93.8
2023-02-01T12:59:17.157Z,93.6
2023-02-01T13:00:16.663Z,93.7
2023-02-01T13:01:17.281Z,93.6
2023-02-01T13:02:17.118Z,93.7
2023-02-01T13:03:16.625Z,93.9
2023-02-01T13:04:17.158Z,94.1
2023-02-01T13:05:16.713Z,94.0
2023-02-01T13:06:17.201Z,93.9
2023-02-01T13:07:18.098Z,93.7
2023-02-01T13:08:16.636Z,93.5
2023-02-01T13:09:17.155Z,93.5
2023-02-01T13:10:16.643Z,93.5
2023-02-01T13:11:17.138Z,93.7
2023-02-01T13:12:17.390Z,93.5
2023-02-01T13:13:16.900Z,93.2
2023-02-01T13:14:17.395Z,92.9
2023-02-01T13:15:16.907Z,92.6
2023-02-01T13:16:19.451Z,92.4
2023-02-01T13:17:17.008Z,92.8
2023-02-01T13:18:16.540Z,93.1